Decoded Metar for EPLB ( in ) (IATA:) | Meteo·Mobile Aviation Weather
aviador You're here:

EPLB Decoded Metar

in
Report Time2019-09-23 08:30:00
UTC Time2019-09-23 08:54:13
Flight Rules lifr LIFR
Wind080° at 10 kt
Visibility6000 m
Phenomena:N/A
Clouds:Overcast 003 Hf
Ceiling300 ft
Temp10°C
Dew Point10°C (100% RH)
AAT6.4°C
QNH1018 hPa
Raw Report
EPLB 230830Z 08010KT 6000 OVC003 10/10 Q1018=

Extra information for EPLB:More info

Social comments